createdAt,value
2022-11-07T00:01:21.084Z,101597.59
2022-11-07T00:03:48.591Z,101594.22
2022-11-07T00:06:15.801Z,101599.41
2022-11-07T00:08:42.915Z,101605.66
2022-11-07T00:11:10.053Z,101606.53
2022-11-07T00:13:37.171Z,101606.63
2022-11-07T00:16:06.876Z,101603.94
2022-11-07T00:18:34.685Z,101601.25
2022-11-07T00:21:07.764Z,101599.75
2022-11-07T00:23:35.613Z,101602.47
2022-11-07T00:26:08.355Z,101598.84
2022-11-07T00:28:40.781Z,101596.25
2022-11-07T00:31:09.202Z,101611.16
2022-11-07T00:33:36.481Z,101614.59
2022-11-07T00:36:04.721Z,101600.66
2022-11-07T00:38:32.162Z,101605.97
2022-11-07T00:41:01.680Z,101609.56
2022-11-07T00:43:29.440Z,101613.91
2022-11-07T00:45:57.142Z,101613.75
2022-11-07T00:48:24.264Z,101620.63
2022-11-07T00:50:51.440Z,101612.72
2022-11-07T00:53:18.623Z,101606.69
2022-11-07T00:55:46.103Z,101615.47
2022-11-07T00:58:14.358Z,101609.34
2022-11-07T01:00:42.270Z,101611.16
2022-11-07T01:03:38.706Z,101615.50
2022-11-07T01:06:06.133Z,101626.84
2022-11-07T01:08:33.439Z,101627.81
2022-11-07T01:11:05.365Z,101638.53
2022-11-07T01:13:33.465Z,101637.78
2022-11-07T01:16:00.589Z,101637.00
2022-11-07T01:18:28.019Z,101638.63
2022-11-07T01:20:55.155Z,101635.91
2022-11-07T01:23:22.962Z,101629.75
2022-11-07T01:25:50.142Z,101628.03
2022-11-07T01:28:17.246Z,101621.97
2022-11-07T01:30:45.346Z,101623.66
2022-11-07T01:33:13.639Z,101614.06
2022-11-07T01:35:41.480Z,101623.66
2022-11-07T01:38:08.666Z,101625.50
2022-11-07T01:41:01.189Z,101621.19
2022-11-07T01:44:02.807Z,101616.94
2022-11-07T01:46:44.633Z,101623.19
2022-11-07T01:49:20.142Z,101617.94
2022-11-07T01:52:17.352Z,101617.94
2022-11-07T01:54:50.372Z,101604.81
2022-11-07T01:57:34.780Z,101611.09
2022-11-07T02:00:04.850Z,101612.81
2022-11-07T02:02:33.511Z,101612.91
2022-11-07T02:05:03.186Z,101610.25
2022-11-07T02:07:30.362Z,101612.97
2022-11-07T02:09:57.780Z,101609.41
2022-11-07T02:12:26.399Z,101606.88
2022-11-07T02:14:54.830Z,101602.53
2022-11-07T02:17:22.125Z,101605.16
2022-11-07T02:19:52.101Z,101604.34
2022-11-07T02:22:28.361Z,101608.81
2022-11-07T02:24:58.653Z,101600.94
2022-11-07T02:27:29.072Z,101608.91
2022-11-07T02:30:05.136Z,101605.38
2022-11-07T02:32:32.670Z,101608.00
2022-11-07T02:35:21.220Z,101608.00
2022-11-07T02:37:48.338Z,101601.78
2022-11-07T02:40:15.649Z,101607.91
2022-11-07T02:42:45.453Z,101610.47
2022-11-07T02:45:18.762Z,101608.66
2022-11-07T02:47:45.894Z,101613.09
2022-11-07T02:50:15.685Z,101619.25
2022-11-07T02:52:43.321Z,101605.19
2022-11-07T02:55:11.969Z,101620.00
2022-11-07T02:57:39.582Z,101609.53
2022-11-07T03:00:08.606Z,101620.94
2022-11-07T03:02:35.825Z,101613.22
2022-11-07T03:05:03.192Z,101619.34
2022-11-07T03:07:30.301Z,101618.38
2022-11-07T03:09:57.457Z,101622.84
2022-11-07T03:12:24.538Z,101628.13
2022-11-07T03:14:51.718Z,101626.47
2022-11-07T03:17:18.969Z,101619.63
2022-11-07T03:19:46.384Z,101619.69
2022-11-07T03:22:13.499Z,101612.81
2022-11-07T03:24:40.637Z,101626.03
2022-11-07T03:27:07.790Z,101623.47
2022-11-07T03:29:34.915Z,101629.59
2022-11-07T03:32:02.006Z,101629.63
2022-11-07T03:34:29.102Z,101633.19
2022-11-07T03:36:56.217Z,101628.88
2022-11-07T03:39:26.022Z,101629.84
2022-11-07T03:41:53.250Z,101632.56
2022-11-07T03:44:20.382Z,101636.06
2022-11-07T03:46:47.498Z,101632.47
2022-11-07T03:49:14.642Z,101636.84
2022-11-07T03:51:41.733Z,101642.03
2022-11-07T03:54:08.877Z,101641.06
2022-11-07T03:56:36.014Z,101645.41
2022-11-07T03:59:03.162Z,101641.22
2022-11-07T04:01:30.406Z,101642.13
2022-11-07T04:03:57.559Z,101650.00
2022-11-07T04:06:24.694Z,101650.94
2022-11-07T04:08:51.792Z,101651.94
2022-11-07T04:11:37.308Z,101659.75
2022-11-07T04:14:22.750Z,101653.63
2022-11-07T04:17:08.135Z,101657.31
2022-11-07T04:19:35.212Z,101661.69
2022-11-07T04:22:02.306Z,101656.50
2022-11-07T04:24:29.394Z,101665.25
2022-11-07T04:27:14.816Z,101657.44
2022-11-07T04:29:41.996Z,101654.78
2022-11-07T04:32:09.134Z,101666.28
2022-11-07T04:34:36.545Z,101655.91
2022-11-07T04:37:03.798Z,101668.00
2022-11-07T04:39:30.888Z,101671.28
2022-11-07T04:41:57.991Z,101668.63
2022-11-07T04:44:25.137Z,101666.94
2022-11-07T04:46:52.214Z,101675.69
2022-11-07T04:49:19.321Z,101685.41
2022-11-07T04:51:46.456Z,101685.50
2022-11-07T04:54:14.874Z,101689.88
2022-11-07T04:56:42.088Z,101687.25
2022-11-07T04:59:09.218Z,101698.50
2022-11-07T05:01:36.431Z,101693.16
2022-11-07T05:04:03.878Z,101689.59
2022-11-07T05:06:36.649Z,101695.78
2022-11-07T05:09:03.916Z,101699.31
2022-11-07T05:11:31.046Z,101700.25
2022-11-07T05:13:58.155Z,101699.41
2022-11-07T05:16:25.328Z,101702.06
2022-11-07T05:18:52.444Z,101698.69
2022-11-07T05:21:19.525Z,101700.56
2022-11-07T05:23:46.616Z,101710.16
2022-11-07T05:26:13.757Z,101710.16
2022-11-07T05:28:41.036Z,101721.47
2022-11-07T05:31:09.086Z,101723.19
2022-11-07T05:33:36.323Z,101717.03
2022-11-07T05:36:29.559Z,101728.38
2022-11-07T05:38:56.670Z,101726.63
2022-11-07T05:41:23.773Z,101724.84
2022-11-07T05:43:50.909Z,101727.53
2022-11-07T05:46:18.019Z,101724.84
2022-11-07T05:48:45.132Z,101729.25
2022-11-07T05:51:12.262Z,101715.34
2022-11-07T05:53:39.580Z,101717.91
2022-11-07T05:56:06.928Z,101716.16
2022-11-07T05:58:34.101Z,101719.63
2022-11-07T06:01:06.201Z,101714.41
2022-11-07T06:03:33.901Z,101705.63
2022-11-07T06:06:00.998Z,101709.03
2022-11-07T06:08:28.104Z,101714.16
2022-11-07T06:10:55.323Z,101718.59
2022-11-07T06:13:22.519Z,101726.38
2022-11-07T06:15:49.636Z,101721.06
2022-11-07T06:18:19.524Z,101719.28
2022-11-07T06:20:47.091Z,101725.41
2022-11-07T06:23:14.944Z,101723.53
2022-11-07T06:25:42.370Z,101720.81
2022-11-07T06:28:11.718Z,101726.84
2022-11-07T06:30:39.074Z,101739.09
2022-11-07T06:33:08.788Z,101742.47
2022-11-07T06:35:36.433Z,101745.81
2022-11-07T06:38:04.960Z,101743.97
2022-11-07T06:40:32.436Z,101749.97
2022-11-07T06:43:26.854Z,101756.81
2022-11-07T06:45:53.869Z,101755.88
2022-11-07T06:48:20.878Z,101764.44
2022-11-07T06:50:48.016Z,101768.78
2022-11-07T06:53:15.633Z,101770.41
2022-11-07T06:55:43.079Z,101781.69
2022-11-07T06:58:10.277Z,101779.81
2022-11-07T07:00:37.753Z,101781.41
2022-11-07T07:03:05.526Z,101796.97
2022-11-07T07:05:33.958Z,101809.03
2022-11-07T07:08:01.144Z,101816.88
2022-11-07T07:10:28.272Z,101817.53
2022-11-07T07:12:56.562Z,101819.81
2022-11-07T07:15:24.045Z,101824.81
2022-11-07T07:17:51.193Z,101814.88
2022-11-07T07:20:18.333Z,101825.13
2022-11-07T07:22:46.747Z,101819.47
2022-11-07T07:25:16.505Z,101823.53
2022-11-07T07:27:43.610Z,101824.13
2022-11-07T07:30:11.533Z,101815.88
2022-11-07T07:32:38.970Z,101830.38
2022-11-07T07:35:07.266Z,101843.94
2022-11-07T07:37:34.413Z,101840.13
2022-11-07T07:40:01.560Z,101843.19
2022-11-07T07:42:28.638Z,101846.19
2022-11-07T07:44:55.789Z,101837.81
2022-11-07T07:47:22.870Z,101847.75
2022-11-07T07:49:49.961Z,101846.28
2022-11-07T07:52:17.037Z,101849.41
2022-11-07T07:54:44.158Z,101842.72
2022-11-07T07:57:11.260Z,101843.91
2022-11-07T07:59:38.366Z,101856.56
2022-11-07T08:02:05.872Z,101856.03
2022-11-07T08:04:33.041Z,101852.84
2022-11-07T08:07:00.145Z,101852.25
2022-11-07T08:09:27.312Z,101860.50
2022-11-07T08:11:54.446Z,101860.81
2022-11-07T08:14:21.539Z,101868.97
2022-11-07T08:16:48.726Z,101870.34
2022-11-07T08:19:15.809Z,101871.34
2022-11-07T08:21:43.815Z,101873.44
2022-11-07T08:24:10.965Z,101875.38
2022-11-07T08:26:38.290Z,101868.69
2022-11-07T08:29:05.757Z,101867.38
2022-11-07T08:31:35.598Z,101866.72
2022-11-07T08:34:02.955Z,101873.25
2022-11-07T08:36:30.189Z,101879.16
2022-11-07T08:38:57.298Z,101880.00
2022-11-07T08:41:24.381Z,101887.44
2022-11-07T08:43:51.479Z,101883.69
2022-11-07T08:46:18.848Z,101881.22
2022-11-07T08:48:45.953Z,101886.81
2022-11-07T08:51:13.066Z,101881.31
2022-11-07T08:53:40.158Z,101889.63
2022-11-07T08:56:09.830Z,101887.41
2022-11-07T08:58:37.397Z,101888.69
2022-11-07T09:01:09.333Z,101889.97
2022-11-07T09:03:46.027Z,101891.69
2022-11-07T09:06:15.010Z,101891.50
2022-11-07T09:08:42.216Z,101892.94
2022-11-07T09:11:09.661Z,101886.84
2022-11-07T09:13:36.894Z,101897.34
2022-11-07T09:16:05.086Z,101897.44
2022-11-07T09:18:32.932Z,101888.78
2022-11-07T09:21:00.158Z,101893.63
2022-11-07T09:23:27.712Z,101897.38
2022-11-07T09:25:55.362Z,101895.06
2022-11-07T09:28:22.621Z,101897.16
2022-11-07T09:31:03.552Z,101892.47
2022-11-07T09:33:31.865Z,101886.22
2022-11-07T09:36:00.975Z,101891.81
2022-11-07T09:38:29.097Z,101889.72
2022-11-07T09:41:31.559Z,101893.22
2022-11-07T09:44:08.162Z,101891.34
2022-11-07T09:46:55.621Z,101892.78
2022-11-07T09:49:29.217Z,101891.34
2022-11-07T09:52:05.961Z,101894.50
2022-11-07T09:54:38.454Z,101896.41
2022-11-07T09:57:08.834Z,101898.63
2022-11-07T09:59:53.063Z,101896.22
2022-11-07T10:02:24.564Z,101895.47
2022-11-07T10:05:04.332Z,101889.59
2022-11-07T10:07:49.894Z,101889.50
2022-11-07T10:10:31.619Z,101882.94
2022-11-07T10:13:28.130Z,101892.28
2022-11-07T10:16:04.248Z,101895.84
2022-11-07T10:18:40.266Z,101884.19
2022-11-07T10:21:36.965Z,101877.94
2022-11-07T10:24:18.630Z,101878.22
2022-11-07T10:26:45.936Z,101878.03
2022-11-07T10:29:19.012Z,101881.59
2022-11-07T10:31:55.565Z,101876.44
2022-11-07T10:34:41.734Z,101873.28
2022-11-07T10:37:09.142Z,101872.69
2022-11-07T10:39:36.257Z,101869.91
2022-11-07T10:42:11.084Z,101868.16
2022-11-07T10:44:40.318Z,101864.94
2022-11-07T10:47:18.605Z,101870.38
2022-11-07T10:50:02.278Z,101863.59
2022-11-07T10:52:29.939Z,101849.09
2022-11-07T10:55:15.585Z,101851.25
2022-11-07T10:57:45.849Z,101850.03
2022-11-07T11:00:24.201Z,101848.75
2022-11-07T11:02:52.529Z,101849.31
2022-11-07T11:05:39.885Z,101850.91
2022-11-07T11:08:36.830Z,101833.75
2022-11-07T11:11:34.377Z,101835.25
2022-11-07T11:14:12.669Z,101841.59
2022-11-07T11:16:42.600Z,101834.97
2022-11-07T11:19:28.232Z,101830.69
2022-11-07T11:21:58.746Z,101827.38
2022-11-07T11:24:39.616Z,101839.16
2022-11-07T11:27:20.359Z,101830.69
2022-11-07T11:30:05.173Z,101834.84
2022-11-07T11:32:41.037Z,101827.78
2022-11-07T11:35:26.447Z,101827.09
2022-11-07T11:38:02.900Z,101818.63
2022-11-07T11:40:38.284Z,101816.03
2022-11-07T11:43:19.111Z,101815.31
2022-11-07T11:46:10.969Z,101822.94
2022-11-07T11:48:51.766Z,101814.50
2022-11-07T11:51:42.875Z,101814.84
2022-11-07T11:54:12.229Z,101812.91
2022-11-07T11:56:42.186Z,101821.69
2022-11-07T11:59:36.952Z,101810.91
2022-11-07T12:02:25.692Z,101808.66
2022-11-07T12:05:09.202Z,101799.53
2022-11-07T12:07:36.309Z,101805.97
2022-11-07T12:10:11.459Z,101806.13
2022-11-07T12:12:48.619Z,101809.22
2022-11-07T12:15:28.624Z,101796.97
2022-11-07T12:18:19.250Z,101802.81
2022-11-07T12:21:05.748Z,101790.16
2022-11-07T12:23:52.064Z,101793.69
2022-11-07T12:26:37.367Z,101784.56
2022-11-07T12:29:22.533Z,101792.13
2022-11-07T12:31:58.104Z,101777.59
2022-11-07T12:34:59.365Z,101774.34
2022-11-07T12:37:58.887Z,101777.72
2022-11-07T12:40:31.633Z,101775.81
2022-11-07T12:43:13.891Z,101767.53
2022-11-07T12:46:05.813Z,101767.72
2022-11-07T12:48:55.082Z,101758.09
2022-11-07T12:51:31.718Z,101757.28
2022-11-07T12:54:16.481Z,101755.28
2022-11-07T12:56:46.923Z,101754.72
2022-11-07T12:59:21.475Z,101758.00
2022-11-07T13:02:00.462Z,101746.31
2022-11-07T13:04:41.874Z,101746.94
2022-11-07T13:07:28.918Z,101745.69
2022-11-07T13:10:13.337Z,101743.78
2022-11-07T13:12:51.305Z,101735.13
2022-11-07T13:15:18.854Z,101730.03
2022-11-07T13:17:47.162Z,101728.69
2022-11-07T13:20:20.393Z,101712.13
2022-11-07T13:23:15.313Z,101723.44
2022-11-07T13:25:42.979Z,101732.09
2022-11-07T13:28:36.619Z,101730.59
2022-11-07T13:31:07.903Z,101732.41
2022-11-07T13:33:36.024Z,101739.00
2022-11-07T13:36:15.426Z,101733.78
2022-11-07T13:38:50.619Z,101733.22
2022-11-07T13:41:19.398Z,101725.19
2022-11-07T13:44:05.513Z,101736.00
2022-11-07T13:46:39.349Z,101735.50
2022-11-07T13:49:20.700Z,101730.25
2022-11-07T13:51:50.804Z,101733.78
2022-11-07T13:54:27.979Z,101740.63
2022-11-07T13:57:01.576Z,101746.63
2022-11-07T13:59:32.462Z,101741.88
2022-11-07T14:02:02.732Z,101739.09
2022-11-07T14:04:30.041Z,101733.91
2022-11-07T14:07:02.706Z,101736.81
2022-11-07T14:09:31.732Z,101741.38
2022-11-07T14:11:58.926Z,101743.81
2022-11-07T14:14:27.434Z,101748.06
2022-11-07T14:17:00.417Z,101743.47
2022-11-07T14:19:30.139Z,101738.25
2022-11-07T14:21:57.717Z,101739.53
2022-11-07T14:24:36.540Z,101746.47
2022-11-07T14:27:08.562Z,101747.56
2022-11-07T14:29:35.788Z,101737.72
2022-11-07T14:32:05.742Z,101735.06
2022-11-07T14:34:35.901Z,101748.69
2022-11-07T14:37:06.968Z,101743.81
2022-11-07T14:39:34.608Z,101747.63
2022-11-07T14:42:05.651Z,101745.56
2022-11-07T14:44:53.963Z,101742.56
2022-11-07T14:47:33.909Z,101738.56
2022-11-07T14:50:02.565Z,101747.91
2022-11-07T14:52:36.388Z,101745.44
2022-11-07T14:55:26.509Z,101750.84
2022-11-07T14:57:53.813Z,101748.06
2022-11-07T15:00:22.527Z,101749.63
2022-11-07T15:02:52.258Z,101749.44
2022-11-07T15:05:23.750Z,101750.31
2022-11-07T15:07:50.922Z,101750.59
2022-11-07T15:10:36.659Z,101750.28
2022-11-07T15:13:25.256Z,101749.84
2022-11-07T15:16:01.561Z,101748.88
2022-11-07T15:18:29.385Z,101750.25
2022-11-07T15:21:01.935Z,101752.78
2022-11-07T15:23:34.887Z,101760.34
2022-11-07T15:26:07.812Z,101757.31
2022-11-07T15:28:49.538Z,101761.56
2022-11-07T15:31:19.391Z,101758.84
2022-11-07T15:33:47.258Z,101765.66
2022-11-07T15:36:15.326Z,101759.38
2022-11-07T15:38:42.741Z,101751.97
2022-11-07T15:41:11.622Z,101759.69
2022-11-07T15:43:38.764Z,101759.44
2022-11-07T15:46:20.944Z,101760.09
2022-11-07T15:48:48.791Z,101758.31
2022-11-07T15:51:15.990Z,101760.78
2022-11-07T15:53:43.105Z,101754.19
2022-11-07T15:56:14.252Z,101770.75
2022-11-07T15:58:41.792Z,101766.94
2022-11-07T16:01:09.276Z,101772.81
2022-11-07T16:03:36.529Z,101771.47
2022-11-07T16:06:14.588Z,101776.28
2022-11-07T16:08:41.989Z,101775.00
2022-11-07T16:11:11.478Z,101775.53
2022-11-07T16:13:39.269Z,101781.47
2022-11-07T16:16:07.476Z,101786.06
2022-11-07T16:18:45.111Z,101777.59
2022-11-07T16:21:12.202Z,101774.25
2022-11-07T16:23:39.694Z,101781.13
2022-11-07T16:26:06.848Z,101775.59
2022-11-07T16:28:35.319Z,101776.13
2022-11-07T16:31:02.869Z,101784.34
2022-11-07T16:33:30.650Z,101778.34
2022-11-07T16:36:15.170Z,101784.69
2022-11-07T16:38:42.245Z,101783.31
2022-11-07T16:41:12.373Z,101789.13
2022-11-07T16:43:40.302Z,101790.31
2022-11-07T16:46:14.738Z,101785.44
2022-11-07T16:48:42.806Z,101788.41
2022-11-07T16:51:15.827Z,101796.69
2022-11-07T16:53:43.428Z,101796.13
2022-11-07T16:56:21.571Z,101794.81
2022-11-07T16:58:48.821Z,101798.53
2022-11-07T17:01:15.990Z,101804.88
2022-11-07T17:03:43.121Z,101801.38
2022-11-07T17:06:18.810Z,101807.78
2022-11-07T17:08:49.105Z,101807.31
2022-11-07T17:11:17.826Z,101817.38
2022-11-07T17:13:45.797Z,101808.63
2022-11-07T17:16:29.923Z,101814.75
2022-11-07T17:18:57.039Z,101821.84
2022-11-07T17:21:28.565Z,101815.84
2022-11-07T17:23:57.892Z,101824.19
2022-11-07T17:26:31.385Z,101831.34
2022-11-07T17:28:59.092Z,101827.28
2022-11-07T17:31:26.779Z,101835.53
2022-11-07T17:33:53.897Z,101834.06
2022-11-07T17:36:30.829Z,101834.56
2022-11-07T17:39:03.006Z,101836.97
2022-11-07T17:41:30.140Z,101838.91
2022-11-07T17:43:59.108Z,101835.91
2022-11-07T17:46:28.446Z,101839.72
2022-11-07T17:49:01.399Z,101840.91
2022-11-07T17:51:29.008Z,101844.69
2022-11-07T17:53:57.538Z,101840.28
2022-11-07T17:56:30.195Z,101847.22
2022-11-07T17:58:59.859Z,101843.72
2022-11-07T18:01:30.728Z,101842.13
2022-11-07T18:03:58.688Z,101848.31
2022-11-07T18:06:27.009Z,101859.91
2022-11-07T18:08:56.948Z,101851.31
2022-11-07T18:11:27.159Z,101851.78
2022-11-07T18:13:56.154Z,101846.13
2022-11-07T18:16:32.166Z,101850.16
2022-11-07T18:19:01.160Z,101856.00
2022-11-07T18:21:29.193Z,101862.63
2022-11-07T18:23:57.071Z,101861.06
2022-11-07T18:26:30.539Z,101859.56
2022-11-07T18:29:02.139Z,101856.38
2022-11-07T18:31:29.364Z,101864.16
2022-11-07T18:34:04.058Z,101865.22
2022-11-07T18:36:34.915Z,101861.00
2022-11-07T18:39:03.523Z,101861.31
2022-11-07T18:41:30.790Z,101855.53
2022-11-07T18:44:03.191Z,101855.66
2022-11-07T18:46:31.889Z,101853.38
2022-11-07T18:48:59.806Z,101847.41
2022-11-07T18:51:26.954Z,101848.88
2022-11-07T18:53:55.025Z,101855.59
2022-11-07T18:56:22.137Z,101861.97
2022-11-07T18:58:49.215Z,101868.06
2022-11-07T19:01:24.234Z,101857.50
2022-11-07T19:03:53.030Z,101861.13
2022-11-07T19:06:22.153Z,101868.91
2022-11-07T19:08:49.400Z,101874.59
2022-11-07T19:11:25.802Z,101880.00
2022-11-07T19:13:53.384Z,101875.78
2022-11-07T19:16:22.129Z,101883.75
2022-11-07T19:18:50.325Z,101871.63
2022-11-07T19:21:20.711Z,101876.97
2022-11-07T19:23:48.869Z,101874.25
2022-11-07T19:26:18.854Z,101883.78
2022-11-07T19:28:46.330Z,101878.63
2022-11-07T19:31:14.031Z,101883.03
2022-11-07T19:33:42.082Z,101888.28
2022-11-07T19:36:18.039Z,101886.63
2022-11-07T19:38:45.993Z,101891.25
2022-11-07T19:41:14.474Z,101896.75
2022-11-07T19:43:43.124Z,101902.25
2022-11-07T19:46:13.845Z,101904.16
2022-11-07T19:48:41.062Z,101903.22
2022-11-07T19:51:20.058Z,101908.59
2022-11-07T19:53:55.566Z,101919.16
2022-11-07T19:56:24.259Z,101907.75
2022-11-07T19:58:51.618Z,101915.75
2022-11-07T20:01:21.905Z,101920.28
2022-11-07T20:03:51.135Z,101918.69
2022-11-07T20:06:21.537Z,101918.81
2022-11-07T20:08:48.896Z,101922.16
2022-11-07T20:11:19.229Z,101914.31
2022-11-07T20:13:46.542Z,101923.00
2022-11-07T20:16:14.832Z,101914.38
2022-11-07T20:18:42.437Z,101916.09
2022-11-07T20:21:13.612Z,101923.19
2022-11-07T20:23:44.941Z,101929.41
2022-11-07T20:26:15.897Z,101930.56
2022-11-07T20:28:44.107Z,101926.25
2022-11-07T20:31:13.626Z,101929.06
2022-11-07T20:33:41.129Z,101937.00
2022-11-07T20:36:12.800Z,101933.66
2022-11-07T20:38:40.903Z,101932.00
2022-11-07T20:41:08.114Z,101931.16
2022-11-07T20:43:35.270Z,101933.19
2022-11-07T20:46:14.604Z,101938.56
2022-11-07T20:48:42.121Z,101939.47
2022-11-07T20:51:11.984Z,101942.28
2022-11-07T20:53:39.519Z,101944.00
2022-11-07T20:56:07.569Z,101945.06
2022-11-07T20:58:37.583Z,101943.19
2022-11-07T21:01:06.146Z,101938.19
2022-11-07T21:03:34.438Z,101939.22
2022-11-07T21:06:01.750Z,101946.28
2022-11-07T21:08:33.188Z,101939.47
2022-11-07T21:11:03.329Z,101946.56
2022-11-07T21:13:30.477Z,101955.59
2022-11-07T21:15:57.694Z,101952.19
2022-11-07T21:18:24.929Z,101954.91
2022-11-07T21:20:52.280Z,101961.78
2022-11-07T21:23:19.810Z,101961.13
2022-11-07T21:25:48.403Z,101955.97
2022-11-07T21:28:17.800Z,101958.72
2022-11-07T21:30:59.306Z,101958.06
2022-11-07T21:33:26.633Z,101955.69
2022-11-07T21:35:54.082Z,101960.09
2022-11-07T21:38:22.835Z,101959.31
2022-11-07T21:40:50.126Z,101958.47
2022-11-07T21:43:17.709Z,101959.50
2022-11-07T21:45:45.141Z,101960.56
2022-11-07T21:48:12.238Z,101955.41
2022-11-07T21:50:45.090Z,101950.19
2022-11-07T21:53:12.781Z,101952.91
2022-11-07T21:55:39.882Z,101955.53
2022-11-07T21:58:07.047Z,101950.31
2022-11-07T22:00:36.602Z,101946.78
2022-11-07T22:03:04.818Z,101944.16
2022-11-07T22:05:31.922Z,101946.88
2022-11-07T22:07:59.137Z,101947.88
2022-11-07T22:10:26.294Z,101951.28
2022-11-07T22:12:53.416Z,101947.78
2022-11-07T22:15:20.521Z,101947.75
2022-11-07T22:17:47.678Z,101943.47
2022-11-07T22:20:14.872Z,101947.00
2022-11-07T22:22:42.076Z,101940.13
2022-11-07T22:25:09.404Z,101948.81
2022-11-07T22:27:37.320Z,101947.91
2022-11-07T22:30:05.377Z,101954.22
2022-11-07T22:32:32.612Z,101960.47
2022-11-07T22:35:00.946Z,101950.88
2022-11-07T22:37:31.372Z,101950.97
2022-11-07T22:39:58.471Z,101953.72
2022-11-07T22:42:27.887Z,101952.88
2022-11-07T22:44:54.980Z,101954.56
2022-11-07T22:47:22.074Z,101957.25
2022-11-07T22:49:49.202Z,101945.72
2022-11-07T22:52:16.308Z,101946.84
2022-11-07T22:54:43.411Z,101943.38
2022-11-07T22:57:13.046Z,101946.06
2022-11-07T22:59:43.857Z,101940.22
2022-11-07T23:02:11.033Z,101945.69
2022-11-07T23:04:38.290Z,101936.84
2022-11-07T23:07:05.393Z,101944.75
2022-11-07T23:09:32.541Z,101933.25
2022-11-07T23:12:00.465Z,101941.09
2022-11-07T23:14:27.589Z,101943.75
2022-11-07T23:16:55.536Z,101938.53
2022-11-07T23:19:25.037Z,101945.84
2022-11-07T23:21:54.619Z,101942.47
2022-11-07T23:24:22.154Z,101942.53
2022-11-07T23:26:49.668Z,101946.88
2022-11-07T23:29:20.204Z,101942.63
2022-11-07T23:31:48.833Z,101939.16
2022-11-07T23:34:16.807Z,101945.47
2022-11-07T23:36:45.052Z,101943.09
2022-11-07T23:39:17.257Z,101944.88
2022-11-07T23:41:44.842Z,101947.72
2022-11-07T23:44:12.732Z,101945.06
2022-11-07T23:46:58.124Z,101940.75
2022-11-07T23:49:54.574Z,101944.16
2022-11-07T23:52:21.777Z,101945.03
2022-11-07T23:55:07.548Z,101940.53
2022-11-07T23:57:57.185Z,101942.28
